createdAt,value
2019-02-27T00:00:43.972Z,19.70
2019-02-27T00:01:42.429Z,20.30
2019-02-27T00:02:42.393Z,20.80
2019-02-27T00:03:42.383Z,20.50
2019-02-27T00:04:42.372Z,19.80
2019-02-27T00:05:42.446Z,19.20
2019-02-27T00:06:42.363Z,20.40
2019-02-27T00:07:42.342Z,21.10
2019-02-27T00:08:42.335Z,21.40
2019-02-27T00:09:42.316Z,19.80
2019-02-27T00:10:42.309Z,18.50
2019-02-27T00:11:45.845Z,19.90
2019-02-27T00:12:42.287Z,18.20
2019-02-27T00:13:42.276Z,18.40
2019-02-27T00:14:42.264Z,18.20
2019-02-27T00:15:42.252Z,17.50
2019-02-27T00:16:44.592Z,17.40
2019-02-27T00:17:42.244Z,17.30
2019-02-27T00:18:42.225Z,17.80
2019-02-27T00:19:42.210Z,16.70
2019-02-27T00:20:42.202Z,16.70
2019-02-27T00:21:43.531Z,17.00
2019-02-27T00:22:42.194Z,16.50
2019-02-27T00:23:42.246Z,16.90
2019-02-27T00:24:42.161Z,16.30
2019-02-27T00:25:42.148Z,16.20
2019-02-27T00:26:42.457Z,16.50
2019-02-27T00:27:42.143Z,15.90
2019-02-27T00:28:42.122Z,15.10
2019-02-27T00:29:42.102Z,15.90
2019-02-27T00:30:42.090Z,15.50
2019-02-27T00:31:45.224Z,15.70
2019-02-27T00:32:42.104Z,16.10
2019-02-27T00:33:42.056Z,14.80
2019-02-27T00:34:42.048Z,15.50
2019-02-27T00:35:42.037Z,15.60
2019-02-27T00:36:44.897Z,15.10
2019-02-27T00:37:42.021Z,15.70
2019-02-27T00:38:42.027Z,15.00
2019-02-27T00:39:41.992Z,15.00
2019-02-27T00:40:41.984Z,14.50
2019-02-27T00:41:45.685Z,13.90
2019-02-27T00:42:41.965Z,14.90
2019-02-27T00:43:41.981Z,14.50
2019-02-27T00:44:41.941Z,14.70
2019-02-27T00:45:41.927Z,14.20
2019-02-27T00:46:44.024Z,14.70
2019-02-27T00:47:41.915Z,14.00
2019-02-27T00:48:41.928Z,14.20
2019-02-27T00:49:41.889Z,13.90
2019-02-27T00:50:41.891Z,14.10
2019-02-27T00:51:44.706Z,14.50
2019-02-27T00:52:41.857Z,14.00
2019-02-27T00:53:41.864Z,14.30
2019-02-27T00:54:41.836Z,14.00
2019-02-27T00:55:41.827Z,13.70
2019-02-27T00:56:44.794Z,13.30
2019-02-27T00:57:41.808Z,13.40
2019-02-27T00:58:41.810Z,13.40
2019-02-27T00:59:41.785Z,13.50
2019-02-27T01:00:41.775Z,13.60
2019-02-27T01:01:41.768Z,13.30
2019-02-27T01:02:41.756Z,13.50
2019-02-27T01:03:41.762Z,13.30
2019-02-27T01:04:41.738Z,13.70
2019-02-27T01:05:41.769Z,14.10
2019-02-27T01:06:41.718Z,13.30
2019-02-27T01:07:41.695Z,13.60
2019-02-27T01:08:41.732Z,13.50
2019-02-27T01:09:41.675Z,13.80
2019-02-27T01:10:42.876Z,14.20
2019-02-27T01:11:41.659Z,13.90
2019-02-27T01:12:41.644Z,14.30
2019-02-27T01:13:41.638Z,15.40
2019-02-27T01:14:41.638Z,15.80
2019-02-27T01:15:41.768Z,15.70
2019-02-27T01:16:41.605Z,14.00
2019-02-27T01:17:41.593Z,15.60
2019-02-27T01:18:41.583Z,16.10
2019-02-27T01:19:42.816Z,15.60
2019-02-27T01:20:45.543Z,15.70
2019-02-27T01:21:41.549Z,15.30
2019-02-27T01:22:41.539Z,14.50
2019-02-27T01:23:43.894Z,15.40
2019-02-27T01:24:41.545Z,15.90
2019-02-27T01:25:41.514Z,16.90
2019-02-27T01:26:41.506Z,17.00
2019-02-27T01:27:41.490Z,14.20
2019-02-27T01:28:44.636Z,15.40
2019-02-27T01:29:41.483Z,16.10
2019-02-27T01:30:41.455Z,15.80
2019-02-27T01:31:41.445Z,14.60
2019-02-27T01:32:41.437Z,15.90
2019-02-27T01:33:41.426Z,15.70
2019-02-27T01:34:44.138Z,14.60
2019-02-27T01:35:41.400Z,16.40
2019-02-27T01:36:41.405Z,16.60
2019-02-27T01:37:41.379Z,15.50
2019-02-27T01:38:41.377Z,15.20
2019-02-27T01:39:41.819Z,16.70
2019-02-27T01:40:41.355Z,17.80
2019-02-27T01:41:41.343Z,15.60
2019-02-27T01:42:41.329Z,14.50
2019-02-27T01:43:41.320Z,15.80
2019-02-27T01:44:43.965Z,15.70
2019-02-27T01:45:42.300Z,16.30
2019-02-27T01:46:41.285Z,17.50
2019-02-27T01:47:41.285Z,15.00
2019-02-27T01:48:43.619Z,16.40
2019-02-27T01:49:41.294Z,17.10
2019-02-27T01:50:41.245Z,16.80
2019-02-27T01:51:41.239Z,16.80
2019-02-27T01:52:41.222Z,15.60
2019-02-27T01:53:41.307Z,15.50
2019-02-27T01:54:41.224Z,16.10
2019-02-27T01:55:41.195Z,16.00
2019-02-27T01:56:41.181Z,16.70
2019-02-27T01:57:41.167Z,15.00
2019-02-27T01:58:44.097Z,14.70
2019-02-27T01:59:41.151Z,13.60
2019-02-27T02:00:41.154Z,13.90
2019-02-27T02:01:41.129Z,14.20
2019-02-27T02:02:41.111Z,13.00
2019-02-27T02:03:41.108Z,14.00
2019-02-27T02:04:41.093Z,13.30
2019-02-27T02:05:41.101Z,13.70
2019-02-27T02:06:41.073Z,13.60
2019-02-27T02:07:41.067Z,13.10
2019-02-27T02:08:41.054Z,12.40
2019-02-27T02:09:41.039Z,13.40
2019-02-27T02:10:41.046Z,13.10
2019-02-27T02:11:41.271Z,11.90
2019-02-27T02:12:41.663Z,12.80
2019-02-27T02:13:41.003Z,12.80
2019-02-27T02:14:41.011Z,12.20
2019-02-27T02:15:40.991Z,12.20
2019-02-27T02:16:40.987Z,12.60
2019-02-27T02:17:41.627Z,12.10
2019-02-27T02:18:40.951Z,12.40
2019-02-27T02:19:40.935Z,12.10
2019-02-27T02:20:40.940Z,13.30
2019-02-27T02:21:40.921Z,12.60
2019-02-27T02:22:41.290Z,12.10
2019-02-27T02:23:40.895Z,11.60
2019-02-27T02:24:40.879Z,11.70
2019-02-27T02:25:40.916Z,12.00
2019-02-27T02:26:40.866Z,12.10
2019-02-27T02:27:41.542Z,11.20
2019-02-27T02:28:40.844Z,12.70
2019-02-27T02:29:40.837Z,11.50
2019-02-27T02:30:40.838Z,13.20
2019-02-27T02:31:42.496Z,11.90
2019-02-27T02:32:40.801Z,12.30
2019-02-27T02:33:40.791Z,12.00
2019-02-27T02:34:41.012Z,11.60
2019-02-27T02:35:40.794Z,11.10
2019-02-27T02:36:40.758Z,11.90
2019-02-27T02:37:40.742Z,12.10
2019-02-27T02:38:40.732Z,11.60
2019-02-27T02:39:40.736Z,12.40
2019-02-27T02:40:40.720Z,13.50
2019-02-27T02:41:46.246Z,12.60
2019-02-27T02:42:41.701Z,13.80
2019-02-27T02:43:41.987Z,13.00
2019-02-27T02:44:40.670Z,14.00
2019-02-27T02:45:40.673Z,14.20
2019-02-27T02:46:44.890Z,13.90
2019-02-27T02:47:40.640Z,14.50
2019-02-27T02:48:40.627Z,14.20
2019-02-27T02:49:42.651Z,14.20
2019-02-27T02:50:40.611Z,13.00
2019-02-27T02:51:40.613Z,14.40
2019-02-27T02:52:41.627Z,13.60
2019-02-27T02:53:40.576Z,14.30
2019-02-27T02:54:40.566Z,14.10
2019-02-27T02:55:40.561Z,14.90
2019-02-27T02:56:40.565Z,16.50
2019-02-27T02:57:40.533Z,14.90
2019-02-27T02:58:47.162Z,15.60
2019-02-27T02:59:41.512Z,15.90
2019-02-27T03:00:40.504Z,16.60
2019-02-27T03:01:40.504Z,14.80
2019-02-27T03:02:40.493Z,15.30
2019-02-27T03:03:40.467Z,15.10
2019-02-27T03:04:40.463Z,15.10
2019-02-27T03:05:40.446Z,15.40
2019-02-27T03:06:40.471Z,15.00
2019-02-27T03:07:44.437Z,15.80
2019-02-27T03:08:41.412Z,14.50
2019-02-27T03:09:40.407Z,15.00
2019-02-27T03:10:42.876Z,15.40
2019-02-27T03:11:40.389Z,15.30
2019-02-27T03:12:40.384Z,14.70
2019-02-27T03:13:41.970Z,15.60
2019-02-27T03:14:40.354Z,13.70
2019-02-27T03:15:40.341Z,15.00
2019-02-27T03:16:41.415Z,14.90
2019-02-27T03:17:40.335Z,14.00
2019-02-27T03:18:40.316Z,15.80
2019-02-27T03:19:41.775Z,13.50
2019-02-27T03:20:40.290Z,14.30
2019-02-27T03:21:40.280Z,15.20
2019-02-27T03:22:41.621Z,13.50
2019-02-27T03:23:40.260Z,15.00
2019-02-27T03:24:40.247Z,13.50
2019-02-27T03:25:41.781Z,13.90
2019-02-27T03:26:40.223Z,13.50
2019-02-27T03:27:40.231Z,14.80
2019-02-27T03:28:40.945Z,15.40
2019-02-27T03:29:40.207Z,13.70
2019-02-27T03:30:40.241Z,13.80
2019-02-27T03:31:40.176Z,15.50
2019-02-27T03:32:43.246Z,15.50
2019-02-27T03:33:40.157Z,13.40
2019-02-27T03:34:48.019Z,15.50
2019-02-27T03:35:41.127Z,14.90
2019-02-27T03:36:40.122Z,15.10
2019-02-27T03:37:40.121Z,14.80
2019-02-27T03:38:40.104Z,16.10
2019-02-27T03:39:40.093Z,15.50
2019-02-27T03:40:40.078Z,16.10
2019-02-27T03:41:40.071Z,16.80
2019-02-27T03:42:40.075Z,15.40
2019-02-27T03:43:45.625Z,16.50
2019-02-27T03:44:41.040Z,15.60
2019-02-27T03:45:40.029Z,16.10
2019-02-27T03:46:41.736Z,16.90
2019-02-27T03:47:40.014Z,15.90
2019-02-27T03:48:40.071Z,16.70
2019-02-27T03:49:40.897Z,16.60
2019-02-27T03:50:39.980Z,16.50
2019-02-27T03:51:39.963Z,16.40
2019-02-27T03:52:39.971Z,16.80
2019-02-27T03:53:43.262Z,15.90
2019-02-27T03:54:40.959Z,15.30
2019-02-27T03:55:39.915Z,13.90
2019-02-27T03:56:43.486Z,13.90
2019-02-27T03:57:39.930Z,13.20
2019-02-27T03:58:39.888Z,12.70
2019-02-27T03:59:42.649Z,12.40
2019-02-27T04:00:42.057Z,12.70
2019-02-27T04:01:39.856Z,11.30
2019-02-27T04:02:42.047Z,11.40
2019-02-27T04:03:39.846Z,10.60
2019-02-27T04:04:39.824Z,10.50
2019-02-27T04:05:42.158Z,10.30
2019-02-27T04:06:40.803Z,10.80
2019-02-27T04:07:39.824Z,10.30
2019-02-27T04:08:43.506Z,10.10
2019-02-27T04:09:39.780Z,10.50
2019-02-27T04:10:39.762Z,9.70
2019-02-27T04:11:42.568Z,10.30
2019-02-27T04:12:39.756Z,10.20
2019-02-27T04:13:39.730Z,10.40
2019-02-27T04:14:41.993Z,10.50
2019-02-27T04:15:39.708Z,11.10
2019-02-27T04:16:39.696Z,11.60
2019-02-27T04:17:39.706Z,11.70
2019-02-27T04:18:39.679Z,11.30
2019-02-27T04:19:40.449Z,10.90
2019-02-27T04:20:39.658Z,12.70
2019-02-27T04:21:39.646Z,12.60
2019-02-27T04:22:39.658Z,11.20
2019-02-27T04:23:39.620Z,12.70
2019-02-27T04:24:39.613Z,12.50
2019-02-27T04:25:39.608Z,13.30
2019-02-27T04:26:41.911Z,13.10
2019-02-27T04:27:39.593Z,12.60
2019-02-27T04:28:39.571Z,13.40
2019-02-27T04:29:41.123Z,13.50
2019-02-27T04:30:39.549Z,14.20
2019-02-27T04:31:39.545Z,13.90
2019-02-27T04:32:39.541Z,11.90
2019-02-27T04:33:39.515Z,13.50
2019-02-27T04:34:39.504Z,13.80
2019-02-27T04:35:40.145Z,12.40
2019-02-27T04:36:39.487Z,12.20
2019-02-27T04:37:39.501Z,12.80
2019-02-27T04:38:39.462Z,12.80
2019-02-27T04:39:39.452Z,13.00
2019-02-27T04:40:41.744Z,12.40
2019-02-27T04:41:39.434Z,12.50
2019-02-27T04:42:39.419Z,12.00
2019-02-27T04:43:39.424Z,13.50
2019-02-27T04:44:39.638Z,12.50
2019-02-27T04:45:39.386Z,11.30
2019-02-27T04:46:39.380Z,12.70
2019-02-27T04:47:39.372Z,13.20
2019-02-27T04:48:39.367Z,14.30
2019-02-27T04:49:39.359Z,13.40
2019-02-27T04:50:41.720Z,14.00
2019-02-27T04:51:39.322Z,13.40
2019-02-27T04:52:39.314Z,13.80
2019-02-27T04:53:40.822Z,13.80
2019-02-27T04:54:41.535Z,14.40
2019-02-27T04:55:39.286Z,13.30
2019-02-27T04:56:39.272Z,14.60
2019-02-27T04:57:39.270Z,14.00
2019-02-27T04:58:42.864Z,14.70
2019-02-27T04:59:39.238Z,12.70
2019-02-27T05:00:39.244Z,13.10
2019-02-27T05:01:39.223Z,13.50
2019-02-27T05:02:39.206Z,14.80
2019-02-27T05:03:39.213Z,14.30
2019-02-27T05:04:39.188Z,12.70
2019-02-27T05:05:41.406Z,14.00
2019-02-27T05:06:39.166Z,10.10
2019-02-27T05:07:39.160Z,14.10
2019-02-27T05:08:39.165Z,18.90
2019-02-27T05:09:39.136Z,23.40
2019-02-27T05:10:40.595Z,25.90
2019-02-27T05:11:39.131Z,26.20
2019-02-27T05:12:39.102Z,25.90
2019-02-27T05:13:39.106Z,26.70
2019-02-27T05:14:39.081Z,26.40
2019-02-27T05:15:39.691Z,24.60
2019-02-27T05:16:39.066Z,25.20
2019-02-27T05:17:39.052Z,26.10
2019-02-27T05:18:39.056Z,27.10
2019-02-27T05:19:39.032Z,25.30
2019-02-27T05:20:39.034Z,26.90
2019-02-27T05:21:39.015Z,25.10
2019-02-27T05:22:38.992Z,23.20
2019-02-27T05:23:39.001Z,24.70
2019-02-27T05:24:41.021Z,24.80
2019-02-27T05:25:38.964Z,22.90
2019-02-27T05:26:38.954Z,23.60
2019-02-27T05:27:38.944Z,22.60
2019-02-27T05:28:38.954Z,23.50
2019-02-27T05:29:38.917Z,24.60
2019-02-27T05:30:38.914Z,23.10
2019-02-27T05:31:38.899Z,21.70
2019-02-27T05:32:38.890Z,22.20
2019-02-27T05:33:39.899Z,21.10
2019-02-27T05:34:38.887Z,17.60
2019-02-27T05:35:38.864Z,19.00
2019-02-27T05:36:38.853Z,20.80
2019-02-27T05:37:39.437Z,22.70
2019-02-27T05:38:40.965Z,25.20
2019-02-27T05:39:38.835Z,27.20
2019-02-27T05:40:38.810Z,26.10
2019-02-27T05:41:38.790Z,24.80
2019-02-27T05:42:39.554Z,26.30
2019-02-27T05:43:38.775Z,24.80
2019-02-27T05:44:38.773Z,26.60
2019-02-27T05:45:38.757Z,25.30
2019-02-27T05:46:39.131Z,24.90
2019-02-27T05:47:38.730Z,24.70
2019-02-27T05:48:38.722Z,24.80
2019-02-27T05:49:38.723Z,24.50
2019-02-27T05:50:38.702Z,23.60
2019-02-27T05:51:38.688Z,23.70
2019-02-27T05:52:38.687Z,23.40
2019-02-27T05:53:38.675Z,23.50
2019-02-27T05:54:38.673Z,19.70
2019-02-27T05:55:39.220Z,21.50
2019-02-27T05:56:38.638Z,26.50
2019-02-27T05:57:38.631Z,25.50
2019-02-27T05:58:38.618Z,24.80
2019-02-27T05:59:38.629Z,22.90
2019-02-27T06:00:38.598Z,22.60
2019-02-27T06:01:38.763Z,25.00
2019-02-27T06:02:38.580Z,22.70
2019-02-27T06:03:38.565Z,23.40
2019-02-27T06:04:38.570Z,21.20
2019-02-27T06:05:38.539Z,22.00
2019-02-27T06:06:38.534Z,22.00
2019-02-27T06:07:38.524Z,21.80
2019-02-27T06:08:38.512Z,20.10
2019-02-27T06:09:38.521Z,22.20
2019-02-27T06:10:38.488Z,22.20
2019-02-27T06:11:38.474Z,21.60
2019-02-27T06:12:40.875Z,22.40
2019-02-27T06:13:38.479Z,20.40
2019-02-27T06:14:38.445Z,21.20
2019-02-27T06:15:38.450Z,21.60
2019-02-27T06:16:40.717Z,22.30
2019-02-27T06:17:43.329Z,21.80
2019-02-27T06:18:39.422Z,23.20
2019-02-27T06:19:38.392Z,20.60
2019-02-27T06:20:41.588Z,22.50
2019-02-27T06:21:38.922Z,21.30
2019-02-27T06:22:38.356Z,18.30
2019-02-27T06:23:38.505Z,15.30
2019-02-27T06:24:38.331Z,16.20
2019-02-27T06:25:38.340Z,16.50
2019-02-27T06:26:38.326Z,15.70
2019-02-27T06:27:39.451Z,15.20
2019-02-27T06:28:38.295Z,14.50
2019-02-27T06:29:38.277Z,14.40
2019-02-27T06:30:38.285Z,15.60
2019-02-27T06:31:39.544Z,15.00
2019-02-27T06:32:38.246Z,15.20
2019-02-27T06:33:38.235Z,15.70
2019-02-27T06:34:38.235Z,15.90
2019-02-27T06:35:38.228Z,17.40
2019-02-27T06:36:41.981Z,18.00
2019-02-27T06:37:38.193Z,17.90
2019-02-27T06:38:38.191Z,19.10
2019-02-27T06:39:38.174Z,18.50
2019-02-27T06:40:42.040Z,17.70
2019-02-27T06:41:39.868Z,21.30
2019-02-27T06:42:38.143Z,21.80
2019-02-27T06:43:38.131Z,21.80
2019-02-27T06:44:39.258Z,21.80
2019-02-27T06:45:38.121Z,20.30
2019-02-27T06:46:38.098Z,20.70
2019-02-27T06:47:38.086Z,21.00
2019-02-27T06:48:38.085Z,19.50
2019-02-27T06:49:38.063Z,17.60
2019-02-27T06:50:38.081Z,19.80
2019-02-27T06:51:38.043Z,21.50
2019-02-27T06:52:42.063Z,21.50
2019-02-27T06:53:38.021Z,18.90
2019-02-27T06:54:38.009Z,18.60
2019-02-27T06:55:38.006Z,19.60
2019-02-27T06:56:38.005Z,18.70
2019-02-27T06:57:40.907Z,19.20
2019-02-27T06:58:37.969Z,18.50
2019-02-27T06:59:37.964Z,18.40
2019-02-27T07:00:37.947Z,19.50
2019-02-27T07:01:37.954Z,20.30
2019-02-27T07:02:37.926Z,19.60
2019-02-27T07:03:37.920Z,19.20
2019-02-27T07:04:39.516Z,18.40
2019-02-27T07:05:37.909Z,18.60
2019-02-27T07:06:37.904Z,17.80
2019-02-27T07:07:37.877Z,17.20
2019-02-27T07:08:38.649Z,18.00
2019-02-27T07:09:37.859Z,17.10
2019-02-27T07:10:37.845Z,16.70
2019-02-27T07:11:37.847Z,17.10
2019-02-27T07:12:37.823Z,17.30
2019-02-27T07:13:37.815Z,17.00
2019-02-27T07:14:39.192Z,16.20
2019-02-27T07:15:37.792Z,17.20
2019-02-27T07:16:37.795Z,17.10
2019-02-27T07:17:37.769Z,16.30
2019-02-27T07:18:41.530Z,17.50
2019-02-27T07:19:37.747Z,17.10
2019-02-27T07:20:37.735Z,16.70
2019-02-27T07:21:37.743Z,17.40
2019-02-27T07:22:37.717Z,16.30
2019-02-27T07:23:37.723Z,17.30
2019-02-27T07:24:37.698Z,17.00
2019-02-27T07:25:42.009Z,15.80
2019-02-27T07:26:38.687Z,16.30
2019-02-27T07:27:37.663Z,15.40
2019-02-27T07:28:37.648Z,16.40
2019-02-27T07:29:37.641Z,15.60
2019-02-27T07:30:39.873Z,15.50
2019-02-27T07:31:37.646Z,16.40
2019-02-27T07:32:37.613Z,14.50
2019-02-27T07:33:38.043Z,15.50
2019-02-27T07:34:37.578Z,14.80
2019-02-27T07:35:37.575Z,15.10
2019-02-27T07:36:38.530Z,15.10
2019-02-27T07:37:37.569Z,15.50
2019-02-27T07:38:37.541Z,14.80
2019-02-27T07:39:37.530Z,15.80
2019-02-27T07:40:37.519Z,15.20
2019-02-27T07:41:37.507Z,14.80
2019-02-27T07:42:37.510Z,12.80
2019-02-27T07:43:37.489Z,15.00
2019-02-27T07:44:37.474Z,14.90
2019-02-27T07:45:37.466Z,14.00
2019-02-27T07:46:37.455Z,14.40
2019-02-27T07:47:37.453Z,13.80
2019-02-27T07:48:37.433Z,14.60
2019-02-27T07:49:37.420Z,14.90
2019-02-27T07:50:37.408Z,14.60
2019-02-27T07:51:37.392Z,14.50
2019-02-27T07:52:37.413Z,14.70
2019-02-27T07:53:37.374Z,13.30
2019-02-27T07:54:37.357Z,15.30
2019-02-27T07:55:37.351Z,14.20
2019-02-27T07:56:37.350Z,14.70
2019-02-27T07:57:37.344Z,11.90
2019-02-27T07:58:37.315Z,14.10
2019-02-27T07:59:38.276Z,13.90
2019-02-27T08:00:37.295Z,13.10
2019-02-27T08:01:43.669Z,12.50
2019-02-27T08:02:38.290Z,13.40
2019-02-27T08:03:37.259Z,12.80
2019-02-27T08:04:37.249Z,13.70
2019-02-27T08:05:37.242Z,12.60
2019-02-27T08:06:37.753Z,12.00
2019-02-27T08:07:37.229Z,12.00
2019-02-27T08:08:37.222Z,12.40
2019-02-27T08:09:37.201Z,12.10
2019-02-27T08:10:37.540Z,12.20
2019-02-27T08:11:37.174Z,11.70
2019-02-27T08:12:37.191Z,12.40
2019-02-27T08:13:37.149Z,12.30
2019-02-27T08:14:37.805Z,12.20
2019-02-27T08:15:37.136Z,12.10
2019-02-27T08:16:37.142Z,12.70
2019-02-27T08:17:37.113Z,12.20
2019-02-27T08:18:38.151Z,11.80
2019-02-27T08:19:37.092Z,11.60
2019-02-27T08:20:37.082Z,11.30
2019-02-27T08:21:37.074Z,12.40
2019-02-27T08:22:37.060Z,11.00
2019-02-27T08:23:37.066Z,12.40
2019-02-27T08:24:37.038Z,11.30
2019-02-27T08:25:37.035Z,10.60
2019-02-27T08:26:37.065Z,11.00
2019-02-27T08:27:37.011Z,12.80
2019-02-27T08:28:37.018Z,12.10
2019-02-27T08:29:36.986Z,11.30
2019-02-27T08:30:36.977Z,12.90
2019-02-27T08:31:36.984Z,13.30
2019-02-27T08:32:36.967Z,10.90
2019-02-27T08:33:36.962Z,12.50
2019-02-27T08:34:36.941Z,12.60
2019-02-27T08:35:36.930Z,12.50
2019-02-27T08:36:36.917Z,11.80
2019-02-27T08:37:36.910Z,9.80
2019-02-27T08:38:36.920Z,10.10
2019-02-27T08:39:36.888Z,8.60
2019-02-27T08:40:36.878Z,8.90
2019-02-27T08:41:36.866Z,8.70
2019-02-27T08:42:38.492Z,7.90
2019-02-27T08:43:36.878Z,9.70
2019-02-27T08:44:36.836Z,9.10
2019-02-27T08:45:36.825Z,8.50
2019-02-27T08:46:37.618Z,8.70
2019-02-27T08:47:36.806Z,9.10
2019-02-27T08:48:36.813Z,9.10
2019-02-27T08:49:36.827Z,7.90
2019-02-27T08:50:36.770Z,9.00
2019-02-27T08:51:36.767Z,8.60
2019-02-27T08:52:36.754Z,8.50
2019-02-27T08:53:36.764Z,9.10
2019-02-27T08:54:36.735Z,8.50
2019-02-27T08:55:39.175Z,9.20
2019-02-27T08:56:36.708Z,8.70
2019-02-27T08:57:36.699Z,8.60
2019-02-27T08:58:36.702Z,7.30
2019-02-27T08:59:36.902Z,8.00
2019-02-27T09:00:36.666Z,8.60
2019-02-27T09:01:37.828Z,9.00
2019-02-27T09:02:36.641Z,8.50
2019-02-27T09:03:37.013Z,9.00
2019-02-27T09:04:36.619Z,7.40
2019-02-27T09:05:36.611Z,8.20
2019-02-27T09:06:36.597Z,8.40
2019-02-27T09:07:37.071Z,8.20
2019-02-27T09:08:36.575Z,8.40
2019-02-27T09:09:36.581Z,8.00
2019-02-27T09:10:36.565Z,8.30
2019-02-27T09:11:37.213Z,7.80
2019-02-27T09:12:36.533Z,7.50
2019-02-27T09:13:36.535Z,7.70
2019-02-27T09:14:36.536Z,7.40
2019-02-27T09:15:36.516Z,7.60
2019-02-27T09:16:36.494Z,8.90
2019-02-27T09:17:36.485Z,7.30
2019-02-27T09:18:36.777Z,8.10
2019-02-27T09:19:36.480Z,8.80
2019-02-27T09:20:36.450Z,8.00
2019-02-27T09:21:36.446Z,7.30
2019-02-27T09:22:36.760Z,7.40
2019-02-27T09:23:36.420Z,6.90
2019-02-27T09:24:36.422Z,7.70
2019-02-27T09:25:36.401Z,6.90
2019-02-27T09:26:36.922Z,8.20
2019-02-27T09:27:36.371Z,8.20
2019-02-27T09:28:36.370Z,7.80
2019-02-27T09:29:36.370Z,7.60
2019-02-27T09:30:36.343Z,7.40
2019-02-27T09:31:37.669Z,7.60
2019-02-27T09:32:36.321Z,8.20
2019-02-27T09:33:38.885Z,8.40
2019-02-27T09:34:36.315Z,8.10
2019-02-27T09:35:38.611Z,8.50
2019-02-27T09:36:36.288Z,8.50
2019-02-27T09:37:36.273Z,7.30
2019-02-27T09:38:36.255Z,7.80
2019-02-27T09:39:36.270Z,7.20
2019-02-27T09:40:38.937Z,8.10
2019-02-27T09:41:36.235Z,8.00
2019-02-27T09:42:36.218Z,8.30
2019-02-27T09:43:36.213Z,7.90
2019-02-27T09:44:36.589Z,9.20
2019-02-27T09:45:36.193Z,8.10
2019-02-27T09:46:36.178Z,7.70
2019-02-27T09:47:36.165Z,8.80
2019-02-27T09:48:36.153Z,8.30
2019-02-27T09:49:38.023Z,8.40
2019-02-27T09:50:36.130Z,7.90
2019-02-27T09:51:36.125Z,10.20
2019-02-27T09:52:36.113Z,8.20
2019-02-27T09:53:36.807Z,8.00
2019-02-27T09:54:36.117Z,8.20
2019-02-27T09:55:36.093Z,6.60
2019-02-27T09:56:36.076Z,8.10
2019-02-27T09:57:36.755Z,8.30
2019-02-27T09:58:36.138Z,7.50
2019-02-27T09:59:36.053Z,8.00
2019-02-27T10:00:36.023Z,8.30
2019-02-27T10:01:36.013Z,8.60
2019-02-27T10:02:36.008Z,9.30
2019-02-27T10:03:35.997Z,8.00
2019-02-27T10:04:36.031Z,9.60
2019-02-27T10:05:36.758Z,9.10
2019-02-27T10:06:35.970Z,7.20
2019-02-27T10:07:35.954Z,8.60
2019-02-27T10:08:35.944Z,8.50
2019-02-27T10:09:35.955Z,7.50
2019-02-27T10:10:35.918Z,7.80
2019-02-27T10:11:35.910Z,7.50
2019-02-27T10:12:35.900Z,8.20
2019-02-27T10:13:37.966Z,8.80
2019-02-27T10:14:35.895Z,8.50
2019-02-27T10:15:35.869Z,6.60
2019-02-27T10:16:35.859Z,7.30
2019-02-27T10:17:35.847Z,8.70
2019-02-27T10:18:35.837Z,9.20
2019-02-27T10:19:35.836Z,8.10
2019-02-27T10:20:37.337Z,10.20
2019-02-27T10:21:35.800Z,6.60
2019-02-27T10:22:35.797Z,9.00
2019-02-27T10:23:35.776Z,6.90
2019-02-27T10:24:36.875Z,8.10
2019-02-27T10:25:35.765Z,9.40
2019-02-27T10:26:35.752Z,8.00
2019-02-27T10:27:35.738Z,9.10
2019-02-27T10:28:39.167Z,10.70
2019-02-27T10:29:35.731Z,8.10
2019-02-27T10:30:35.703Z,8.10
2019-02-27T10:31:35.695Z,8.10
2019-02-27T10:32:36.690Z,9.00
2019-02-27T10:33:35.673Z,11.00
2019-02-27T10:34:36.253Z,9.10
2019-02-27T10:35:35.666Z,8.70
2019-02-27T10:36:38.038Z,7.60
2019-02-27T10:37:35.674Z,9.50
2019-02-27T10:38:40.225Z,8.60
2019-02-27T10:39:37.042Z,7.50
2019-02-27T10:40:35.597Z,8.80
2019-02-27T10:41:35.590Z,8.70
2019-02-27T10:42:35.573Z,8.70
2019-02-27T10:43:35.583Z,8.40
2019-02-27T10:44:35.571Z,8.20
2019-02-27T10:45:35.545Z,9.20
2019-02-27T10:46:35.535Z,7.20
2019-02-27T10:47:36.255Z,7.80
2019-02-27T10:48:36.855Z,7.20
2019-02-27T10:49:35.529Z,6.80
2019-02-27T10:50:36.220Z,7.90
2019-02-27T10:51:35.490Z,9.10
2019-02-27T10:52:35.466Z,8.40
2019-02-27T10:53:35.455Z,7.10
2019-02-27T10:54:36.997Z,5.80
2019-02-27T10:55:35.454Z,6.10
2019-02-27T10:56:35.422Z,5.90
2019-02-27T10:57:38.427Z,5.80
2019-02-27T10:58:35.399Z,5.90
2019-02-27T10:59:35.401Z,6.10
2019-02-27T11:00:35.375Z,6.20
2019-02-27T11:01:36.381Z,6.10
2019-02-27T11:02:35.358Z,5.80
2019-02-27T11:03:35.344Z,5.60
2019-02-27T11:04:36.348Z,5.90
2019-02-27T11:05:35.326Z,5.70
2019-02-27T11:06:37.789Z,5.90
2019-02-27T11:07:35.300Z,5.50
2019-02-27T11:08:35.294Z,5.90
2019-02-27T11:09:35.303Z,5.20
2019-02-27T11:10:35.270Z,5.50
2019-02-27T11:11:35.258Z,5.90
2019-02-27T11:12:35.252Z,5.20
2019-02-27T11:13:35.241Z,5.60
2019-02-27T11:14:35.243Z,5.70
2019-02-27T11:15:35.214Z,5.90
2019-02-27T11:16:35.212Z,5.20
2019-02-27T11:17:35.205Z,5.30
2019-02-27T11:18:35.187Z,5.90
2019-02-27T11:19:35.189Z,5.70
2019-02-27T11:20:35.166Z,5.40
2019-02-27T11:21:35.154Z,5.70
2019-02-27T11:22:35.140Z,5.60
2019-02-27T11:23:35.143Z,5.60
2019-02-27T11:24:35.163Z,5.50
2019-02-27T11:25:35.114Z,5.70
2019-02-27T11:26:35.102Z,5.10
2019-02-27T11:27:36.323Z,5.20
2019-02-27T11:28:35.083Z,5.30
2019-02-27T11:29:35.096Z,5.90
2019-02-27T11:30:36.790Z,5.20
2019-02-27T11:31:35.057Z,5.60
2019-02-27T11:32:35.039Z,5.60
2019-02-27T11:33:35.032Z,5.20
2019-02-27T11:34:35.047Z,5.40
2019-02-27T11:35:35.006Z,5.30
2019-02-27T11:36:35.085Z,5.70
2019-02-27T11:37:34.992Z,5.20
2019-02-27T11:38:34.978Z,5.40
2019-02-27T11:39:34.983Z,5.00
2019-02-27T11:40:34.959Z,5.10
2019-02-27T11:41:34.946Z,5.10
2019-02-27T11:42:34.934Z,5.30
2019-02-27T11:43:34.926Z,5.10
2019-02-27T11:44:34.946Z,5.60
2019-02-27T11:45:34.909Z,5.20
2019-02-27T11:46:35.107Z,5.30
2019-02-27T11:47:34.904Z,5.40
2019-02-27T11:48:34.872Z,5.50
2019-02-27T11:49:36.262Z,5.80
2019-02-27T11:50:34.848Z,5.00
2019-02-27T11:51:34.835Z,5.40
2019-02-27T11:52:34.826Z,5.20
2019-02-27T11:53:35.943Z,5.60
2019-02-27T11:54:34.822Z,5.00
2019-02-27T11:55:34.806Z,5.00
2019-02-27T11:56:34.790Z,5.00
2019-02-27T11:57:34.779Z,5.00
2019-02-27T11:58:38.097Z,5.30
2019-02-27T11:59:34.771Z,5.40
2019-02-27T12:00:34.743Z,5.50
2019-02-27T12:01:34.742Z,5.20
2019-02-27T12:02:37.789Z,5.10
2019-02-27T12:03:34.714Z,5.10
2019-02-27T12:04:34.715Z,5.40
2019-02-27T12:05:34.693Z,4.90
2019-02-27T12:06:34.682Z,4.80
2019-02-27T12:07:34.669Z,5.80
2019-02-27T12:08:34.662Z,5.80
2019-02-27T12:09:35.138Z,5.10
2019-02-27T12:10:34.639Z,5.30
2019-02-27T12:11:34.627Z,5.20
2019-02-27T12:12:34.618Z,4.80
2019-02-27T12:13:35.003Z,4.80
2019-02-27T12:14:34.615Z,4.90
2019-02-27T12:15:34.584Z,5.40
2019-02-27T12:16:34.577Z,5.00
2019-02-27T12:17:34.570Z,4.50
2019-02-27T12:18:35.148Z,4.60
2019-02-27T12:19:34.563Z,5.50
2019-02-27T12:20:34.532Z,5.80
2019-02-27T12:21:34.522Z,4.90
2019-02-27T12:22:35.302Z,5.70
2019-02-27T12:23:34.504Z,5.90
2019-02-27T12:24:34.524Z,4.80
2019-02-27T12:25:34.487Z,4.80
2019-02-27T12:26:37.661Z,5.00
2019-02-27T12:27:48.652Z,4.80
2019-02-27T12:28:35.451Z,4.50
2019-02-27T12:29:34.444Z,5.00
2019-02-27T12:30:36.953Z,5.30
2019-02-27T12:31:34.420Z,5.10
2019-02-27T12:32:34.412Z,5.00
2019-02-27T12:33:34.530Z,5.00
2019-02-27T12:34:37.050Z,6.00
2019-02-27T12:35:34.399Z,4.40
2019-02-27T12:36:34.365Z,5.10
2019-02-27T12:37:34.943Z,4.60
2019-02-27T12:38:34.345Z,5.00
2019-02-27T12:39:34.346Z,5.20
2019-02-27T12:40:34.336Z,5.60
2019-02-27T12:41:34.316Z,6.40
2019-02-27T12:42:37.227Z,7.90
2019-02-27T12:43:34.293Z,6.70
2019-02-27T12:44:34.581Z,6.90
2019-02-27T12:45:34.307Z,6.70
2019-02-27T12:46:34.798Z,7.00
2019-02-27T12:47:34.259Z,7.60
2019-02-27T12:48:34.241Z,7.40
2019-02-27T12:49:34.227Z,7.20
2019-02-27T12:50:34.233Z,6.80
2019-02-27T12:51:35.276Z,7.10
2019-02-27T12:52:34.193Z,8.20
2019-02-27T12:53:34.186Z,6.70
2019-02-27T12:54:34.178Z,6.80
2019-02-27T12:55:36.335Z,6.70
2019-02-27T12:56:34.156Z,7.50
2019-02-27T12:57:34.147Z,6.70
2019-02-27T12:58:34.138Z,6.50
2019-02-27T12:59:34.118Z,6.70
2019-02-27T13:00:34.124Z,7.50
2019-02-27T13:01:34.098Z,7.70